createdAt,value
2023-04-08T00:01:04.053Z,17.97
2023-04-08T00:03:32.468Z,15.80
2023-04-08T00:06:02.502Z,15.43
2023-04-08T00:08:30.597Z,15.40
2023-04-08T00:10:58.474Z,14.83
2023-04-08T00:13:26.582Z,16.77
2023-04-08T00:15:54.481Z,16.47
2023-04-08T00:18:23.613Z,15.10
2023-04-08T00:20:51.445Z,14.87
2023-04-08T00:23:21.273Z,17.27
2023-04-08T00:25:49.141Z,14.83
2023-04-08T00:28:16.899Z,16.30
2023-04-08T00:30:46.288Z,16.23
2023-04-08T00:33:14.217Z,15.37
2023-04-08T00:35:43.408Z,17.97
2023-04-08T00:38:11.419Z,15.77
2023-04-08T00:40:40.087Z,14.13
2023-04-08T00:43:07.890Z,14.23
2023-04-08T00:45:35.821Z,16.83
2023-04-08T00:48:05.988Z,14.60
2023-04-08T00:50:33.872Z,15.33
2023-04-08T00:53:02.968Z,15.73
2023-04-08T00:55:30.831Z,15.23
2023-04-08T00:57:59.595Z,16.50
2023-04-08T01:00:31.457Z,16.07
2023-04-08T01:03:13.200Z,16.40
2023-04-08T01:05:56.302Z,14.97
2023-04-08T01:08:29.735Z,15.80
2023-04-08T01:11:02.154Z,15.27
2023-04-08T01:13:36.906Z,14.23
2023-04-08T01:16:06.237Z,17.13
2023-04-08T01:18:37.118Z,17.90
2023-04-08T01:21:06.911Z,15.73
2023-04-08T01:23:50.302Z,16.83
2023-04-08T01:26:25.541Z,15.77
2023-04-08T01:28:57.585Z,14.50
2023-04-08T01:31:27.389Z,14.10
2023-04-08T01:33:57.627Z,17.27
2023-04-08T01:36:26.837Z,16.90
2023-04-08T01:38:55.392Z,16.80
2023-04-08T01:41:24.938Z,16.27
2023-04-08T01:43:54.916Z,16.77
2023-04-08T01:46:23.028Z,17.53
2023-04-08T01:48:52.914Z,15.67
2023-04-08T01:51:22.552Z,19.23
2023-04-08T01:53:51.552Z,17.63
2023-04-08T01:56:26.012Z,17.13
2023-04-08T01:58:58.642Z,17.37
2023-04-08T02:01:31.068Z,16.30
2023-04-08T02:04:01.508Z,20.00
2023-04-08T02:06:31.253Z,17.20
2023-04-08T02:09:01.663Z,20.87
2023-04-08T02:11:32.100Z,17.93
2023-04-08T02:14:00.260Z,18.53
2023-04-08T02:16:37.463Z,16.00
2023-04-08T02:19:14.435Z,16.67
2023-04-08T02:21:50.612Z,13.37
2023-04-08T02:24:21.272Z,13.60
2023-04-08T02:26:52.329Z,13.57
2023-04-08T02:29:20.557Z,11.77
2023-04-08T02:31:51.431Z,15.03
2023-04-08T02:34:22.325Z,13.40
2023-04-08T02:36:51.806Z,12.17
2023-04-08T02:39:19.733Z,13.50
2023-04-08T02:41:51.639Z,13.30
2023-04-08T02:44:22.568Z,14.47
2023-04-08T02:46:50.779Z,12.73
2023-04-08T02:49:18.520Z,12.43
2023-04-08T02:51:46.228Z,13.87
2023-04-08T02:54:14.126Z,13.23
2023-04-08T02:56:42.004Z,12.70
2023-04-08T02:59:11.242Z,16.10
2023-04-08T03:01:39.282Z,15.43
2023-04-08T03:04:07.140Z,13.57
2023-04-08T03:06:34.915Z,14.73
2023-04-08T03:09:02.747Z,13.43
2023-04-08T03:11:30.802Z,15.20
2023-04-08T03:13:58.546Z,12.23
2023-04-08T03:16:27.900Z,14.03
2023-04-08T03:18:56.024Z,14.97
2023-04-08T03:21:24.525Z,13.80
2023-04-08T03:23:52.384Z,12.50
2023-04-08T03:26:20.891Z,15.47
2023-04-08T03:28:48.929Z,13.97
2023-04-08T03:31:17.134Z,16.20
2023-04-08T03:33:46.333Z,14.70
2023-04-08T03:36:14.094Z,13.07
2023-04-08T03:38:41.896Z,11.77
2023-04-08T03:41:09.839Z,12.17
2023-04-08T03:43:38.086Z,10.63
2023-04-08T03:46:06.210Z,11.27
2023-04-08T03:48:34.136Z,9.37
2023-04-08T03:51:03.522Z,10.03
2023-04-08T03:53:31.356Z,11.37
2023-04-08T03:55:59.721Z,10.40
2023-04-08T03:58:27.386Z,10.90
2023-04-08T04:00:55.544Z,9.40
2023-04-08T04:03:23.706Z,9.13
2023-04-08T04:05:51.628Z,12.27
2023-04-08T04:08:20.864Z,10.23
2023-04-08T04:10:48.592Z,10.20
2023-04-08T04:13:16.470Z,9.83
2023-04-08T04:15:44.262Z,10.57
2023-04-08T04:18:12.104Z,11.60
2023-04-08T04:20:41.409Z,11.20
2023-04-08T04:23:09.608Z,8.80
2023-04-08T04:25:41.562Z,9.03
2023-04-08T04:28:10.043Z,8.20
2023-04-08T04:30:38.394Z,9.43
2023-04-08T04:33:06.762Z,10.23
2023-04-08T04:35:34.933Z,12.10
2023-04-08T04:38:02.913Z,10.00
2023-04-08T04:40:30.752Z,9.53
2023-04-08T04:42:59.916Z,11.13
2023-04-08T04:45:27.704Z,10.43
2023-04-08T04:47:55.701Z,8.40
2023-04-08T04:50:23.632Z,9.93
2023-04-08T04:52:51.450Z,8.77
2023-04-08T04:55:19.513Z,12.00
2023-04-08T04:57:47.245Z,8.30
2023-04-08T05:00:17.123Z,8.70
2023-04-08T05:02:45.283Z,8.57
2023-04-08T05:05:13.358Z,9.00
2023-04-08T05:07:41.232Z,8.33
2023-04-08T05:10:10.976Z,8.70
2023-04-08T05:12:39.016Z,8.00
2023-04-08T05:15:08.106Z,8.87
2023-04-08T05:17:37.269Z,9.13
2023-04-08T05:20:06.612Z,8.97
2023-04-08T05:22:34.540Z,8.57
2023-04-08T05:25:02.337Z,9.37
2023-04-08T05:27:30.567Z,9.00
2023-04-08T05:29:58.422Z,9.13
2023-04-08T05:32:26.227Z,8.40
2023-04-08T05:34:55.557Z,10.87
2023-04-08T05:37:23.300Z,9.57
2023-04-08T05:39:51.251Z,8.70
2023-04-08T05:42:19.171Z,7.57
2023-04-08T05:44:47.082Z,9.50
2023-04-08T05:47:14.840Z,11.57
2023-04-08T05:49:42.725Z,9.00
2023-04-08T05:52:11.867Z,10.97
2023-04-08T05:54:43.291Z,8.37
2023-04-08T05:57:11.173Z,8.30
2023-04-08T05:59:38.873Z,8.37
2023-04-08T06:02:07.443Z,8.93
2023-04-08T06:04:35.693Z,8.97
2023-04-08T06:07:04.517Z,8.53
2023-04-08T06:09:37.369Z,7.60
2023-04-08T06:12:05.732Z,7.37
2023-04-08T06:14:33.517Z,8.50
2023-04-08T06:17:01.440Z,10.07
2023-04-08T06:19:29.593Z,10.53
2023-04-08T06:21:58.970Z,7.77
2023-04-08T06:24:29.267Z,9.10
2023-04-08T06:26:58.418Z,11.40
2023-04-08T06:29:26.172Z,9.33
2023-04-08T06:31:54.284Z,11.47
2023-04-08T06:34:22.062Z,11.17
2023-04-08T06:36:50.298Z,9.93
2023-04-08T06:39:19.442Z,11.53
2023-04-08T06:41:47.426Z,12.17
2023-04-08T06:44:42.800Z,10.03
2023-04-08T06:47:10.779Z,9.47
2023-04-08T06:49:38.512Z,7.53
2023-04-08T06:52:07.068Z,11.60
2023-04-08T06:54:34.886Z,11.27
2023-04-08T06:57:04.140Z,8.60
2023-04-08T06:59:31.991Z,8.60
2023-04-08T07:02:01.443Z,10.63
2023-04-08T07:04:29.399Z,9.20
2023-04-08T07:06:57.773Z,9.57
2023-04-08T07:09:25.701Z,11.57
2023-04-08T07:11:53.728Z,10.83
2023-04-08T07:14:21.811Z,8.63
2023-04-08T07:16:49.559Z,7.97
2023-04-08T07:19:18.719Z,9.47
2023-04-08T07:24:14.612Z,10.23
2023-04-08T07:26:42.666Z,8.77
2023-04-08T07:29:10.838Z,9.47
2023-04-08T07:31:38.602Z,9.93
2023-04-08T07:34:06.374Z,9.90
2023-04-08T07:36:35.708Z,10.33
2023-04-08T07:39:03.753Z,11.10
2023-04-08T07:41:31.537Z,9.40
2023-04-08T07:43:59.326Z,10.53
2023-04-08T07:46:27.185Z,10.20
2023-04-08T07:48:55.059Z,9.37
2023-04-08T07:51:23.078Z,9.73
2023-04-08T07:53:52.188Z,11.07
2023-04-08T07:56:19.993Z,10.93
2023-04-08T07:58:48.472Z,9.63
2023-04-08T08:01:19.972Z,11.57
2023-04-08T08:03:48.651Z,11.97
2023-04-08T08:06:17.397Z,11.13
2023-04-08T08:08:45.568Z,13.97
2023-04-08T08:11:14.923Z,11.00
2023-04-08T08:13:42.875Z,9.93
2023-04-08T08:16:12.021Z,10.60
2023-04-08T08:18:41.395Z,10.67
2023-04-08T08:21:09.690Z,12.93
2023-04-08T08:23:37.823Z,10.90
2023-04-08T08:26:10.097Z,10.70
2023-04-08T08:28:40.039Z,12.17
2023-04-08T08:31:08.317Z,13.83
2023-04-08T08:33:36.248Z,10.53
2023-04-08T08:36:05.525Z,13.07
2023-04-08T08:38:33.632Z,12.00
2023-04-08T08:41:03.819Z,12.80
2023-04-08T08:43:35.590Z,14.63
2023-04-08T08:46:06.609Z,12.33
2023-04-08T08:48:36.769Z,15.03
2023-04-08T08:51:09.633Z,12.23
2023-04-08T08:53:38.070Z,11.87
2023-04-08T08:58:41.695Z,12.30
2023-04-08T09:01:35.777Z,13.27
2023-04-08T09:04:15.775Z,10.80
2023-04-08T09:06:45.316Z,13.80
2023-04-08T09:09:13.984Z,12.73
2023-04-08T09:11:44.029Z,14.27
2023-04-08T09:14:21.609Z,14.67
2023-04-08T09:16:53.081Z,13.47
2023-04-08T09:19:21.141Z,12.77
2023-04-08T09:22:07.812Z,13.63
2023-04-08T09:24:37.345Z,12.73
2023-04-08T09:27:06.123Z,13.17
2023-04-08T09:29:37.285Z,11.73
2023-04-08T09:32:08.515Z,12.40
2023-04-08T09:34:36.668Z,13.60
2023-04-08T09:37:04.513Z,13.40
2023-04-08T09:39:32.318Z,12.73
2023-04-08T09:42:08.222Z,14.83
2023-04-08T09:44:37.902Z,12.67
2023-04-08T09:47:18.249Z,12.80
2023-04-08T09:49:55.101Z,13.07
2023-04-08T09:52:33.442Z,16.80
2023-04-08T09:55:04.592Z,12.67
2023-04-08T09:57:41.876Z,22.87
2023-04-08T10:00:13.983Z,14.07
2023-04-08T10:02:57.134Z,11.93
2023-04-08T10:05:27.189Z,13.33
2023-04-08T10:07:57.775Z,13.80
2023-04-08T10:10:27.168Z,15.07
2023-04-08T10:12:55.755Z,13.13
2023-04-08T10:15:26.758Z,13.03
2023-04-08T10:18:32.900Z,12.47
2023-04-08T10:21:01.095Z,14.25
2023-04-08T10:23:56.276Z,12.23
2023-04-08T10:26:34.419Z,16.07
2023-04-08T10:29:33.098Z,16.07
2023-04-08T10:32:01.903Z,13.23
2023-04-08T10:34:31.211Z,21.30
2023-04-08T10:36:59.518Z,13.80
2023-04-08T10:39:27.488Z,12.07
2023-04-08T10:41:56.225Z,12.47
2023-04-08T10:44:26.834Z,15.50
2023-04-08T10:46:55.564Z,12.80
2023-04-08T10:49:34.845Z,15.00
2023-04-08T10:52:08.570Z,11.93
2023-04-08T10:54:38.447Z,12.40
2023-04-08T10:57:07.375Z,12.10
2023-04-08T10:59:36.813Z,12.70
2023-04-08T11:02:05.002Z,11.53
2023-04-08T11:04:34.418Z,12.47
2023-04-08T11:07:06.169Z,12.83
2023-04-08T11:09:34.756Z,14.63
2023-04-08T11:12:03.628Z,12.70
2023-04-08T11:14:33.168Z,11.83
2023-04-08T11:17:01.615Z,11.90
2023-04-08T11:19:29.554Z,11.17
2023-04-08T11:21:59.114Z,12.02
2023-04-08T11:24:28.139Z,11.88
2023-04-08T11:26:57.111Z,12.13
2023-04-08T11:29:25.046Z,11.50
2023-04-08T11:31:53.063Z,12.93
2023-04-08T11:34:23.971Z,14.55
2023-04-08T11:36:52.521Z,13.10
2023-04-08T11:39:24.247Z,12.05
2023-04-08T11:41:53.250Z,14.57
2023-04-08T11:44:31.519Z,14.40
2023-04-08T11:46:59.639Z,16.80
2023-04-08T11:49:27.607Z,16.80
2023-04-08T11:51:59.076Z,12.30
2023-04-08T11:54:29.819Z,13.40
2023-04-08T11:56:59.050Z,13.95
2023-04-08T11:59:28.984Z,18.63
2023-04-08T12:01:57.939Z,13.77
2023-04-08T12:04:26.250Z,16.15
2023-04-08T12:06:55.007Z,14.93
2023-04-08T12:09:24.129Z,14.93
2023-04-08T12:11:53.193Z,13.70
2023-04-08T12:14:21.971Z,14.25
2023-04-08T12:16:49.789Z,13.38
2023-04-08T12:19:17.633Z,16.95
2023-04-08T12:21:45.367Z,15.90
2023-04-08T12:24:13.183Z,15.40
2023-04-08T12:26:40.901Z,15.27
2023-04-08T12:29:11.650Z,15.38
2023-04-08T12:31:39.532Z,14.93
2023-04-08T12:34:07.401Z,16.73
2023-04-08T12:36:35.979Z,15.60
2023-04-08T12:39:03.990Z,12.55
2023-04-08T12:41:31.697Z,15.38
2023-04-08T12:43:59.582Z,16.23
2023-04-08T12:46:28.796Z,15.65
2023-04-08T12:49:03.370Z,18.48
2023-04-08T12:51:32.558Z,17.80
2023-04-08T12:54:01.219Z,16.60
2023-04-08T12:56:29.155Z,19.40
2023-04-08T12:58:57.650Z,19.23
2023-04-08T13:01:25.623Z,19.87
2023-04-08T13:03:55.608Z,21.35
2023-04-08T13:06:23.608Z,21.23
2023-04-08T13:08:51.645Z,19.83
2023-04-08T13:11:19.660Z,19.37
2023-04-08T13:13:47.601Z,19.85
2023-04-08T13:16:15.847Z,20.83
2023-04-08T13:18:43.679Z,25.17
2023-04-08T13:21:12.971Z,22.63
2023-04-08T13:23:41.005Z,24.88
2023-04-08T13:26:08.820Z,24.52
2023-04-08T13:28:53.872Z,25.23
2023-04-08T13:31:24.738Z,25.27
2023-04-08T13:33:54.550Z,23.70
2023-04-08T13:36:26.759Z,23.90
2023-04-08T13:38:54.868Z,25.00
2023-04-08T13:41:23.105Z,23.80
2023-04-08T13:43:51.091Z,23.45
2023-04-08T13:46:19.069Z,23.93
2023-04-08T13:48:46.873Z,26.27
2023-04-08T13:51:14.632Z,25.97
2023-04-08T13:53:43.730Z,24.08
2023-04-08T13:56:11.568Z,25.20
2023-04-08T13:58:39.369Z,24.48
2023-04-08T14:01:07.456Z,23.30
2023-04-08T14:03:35.206Z,22.40
2023-04-08T14:06:03.245Z,24.90
2023-04-08T14:08:31.138Z,26.40
2023-04-08T14:11:00.378Z,25.37
2023-04-08T14:13:28.194Z,24.10
2023-04-08T14:15:58.273Z,24.13
2023-04-08T14:18:26.362Z,21.97
2023-04-08T14:20:54.058Z,23.43
2023-04-08T14:23:22.034Z,22.37
2023-04-08T14:25:49.742Z,24.87
2023-04-08T14:28:18.860Z,26.00
2023-04-08T14:30:47.545Z,28.58
2023-04-08T14:33:15.272Z,35.60
2023-04-08T14:35:43.265Z,25.73
2023-04-08T14:38:11.355Z,29.25
2023-04-08T14:40:39.196Z,27.80
2023-04-08T14:43:07.316Z,27.43
2023-04-08T14:45:36.567Z,27.30
2023-04-08T14:48:04.531Z,25.10
2023-04-08T14:50:32.651Z,25.27
2023-04-08T14:53:01.086Z,25.80
2023-04-08T14:55:29.926Z,24.77
2023-04-08T14:57:59.803Z,26.83
2023-04-08T15:00:28.963Z,26.57
2023-04-08T15:02:58.294Z,30.07
2023-04-08T15:05:26.462Z,30.20
2023-04-08T15:07:54.430Z,29.67
2023-04-08T15:10:22.315Z,29.17
2023-04-08T15:12:50.151Z,28.90
2023-04-08T15:15:17.878Z,31.37
2023-04-08T15:17:45.728Z,32.63
2023-04-08T15:20:15.194Z,30.33
2023-04-08T15:22:43.202Z,31.17
2023-04-08T15:25:11.102Z,31.23
2023-04-08T15:27:39.247Z,29.50
2023-04-08T15:30:08.165Z,35.23
2023-04-08T15:32:35.994Z,34.13
2023-04-08T15:35:04.351Z,29.70
2023-04-08T15:37:33.613Z,32.03
2023-04-08T15:40:01.462Z,32.13
2023-04-08T15:42:29.359Z,30.95
2023-04-08T15:44:57.139Z,30.42
2023-04-08T15:47:24.996Z,35.03
2023-04-08T15:49:53.281Z,32.43
2023-04-08T15:52:21.235Z,36.17
2023-04-08T15:54:50.390Z,33.23
2023-04-08T15:57:18.192Z,30.50
2023-04-08T15:59:46.006Z,33.03
2023-04-08T16:02:14.009Z,29.97
2023-04-08T16:04:42.870Z,31.83
2023-04-08T16:07:11.090Z,32.90
2023-04-08T16:09:38.849Z,32.53
2023-04-08T16:12:08.661Z,34.20
2023-04-08T16:14:36.526Z,32.63
2023-04-08T16:17:04.697Z,30.77
2023-04-08T16:19:32.439Z,30.33
2023-04-08T16:22:00.373Z,32.37
2023-04-08T16:24:28.249Z,31.57
2023-04-08T16:26:57.792Z,28.33
2023-04-08T16:29:27.598Z,30.77
2023-04-08T16:31:55.439Z,28.73
2023-04-08T16:34:23.277Z,30.90
2023-04-08T16:36:51.678Z,29.93
2023-04-08T16:39:19.621Z,31.33
2023-04-08T16:41:47.714Z,36.43
2023-04-08T16:44:16.000Z,31.77
2023-04-08T16:46:45.400Z,30.73
2023-04-08T16:49:15.009Z,28.33
2023-04-08T16:51:44.457Z,29.27
2023-04-08T16:54:12.239Z,28.60
2023-04-08T16:56:44.418Z,29.30
2023-04-08T16:59:12.526Z,33.33
2023-04-08T17:01:40.777Z,33.13
2023-04-08T17:04:10.646Z,33.03
2023-04-08T17:06:40.706Z,37.03
2023-04-08T17:09:09.083Z,34.90
2023-04-08T17:11:36.898Z,40.17
2023-04-08T17:14:05.700Z,34.13
2023-04-08T17:16:33.526Z,33.07
2023-04-08T17:19:01.375Z,35.27
2023-04-08T17:21:31.042Z,41.63
2023-04-08T17:23:58.936Z,36.67
2023-04-08T17:26:28.136Z,30.97
2023-04-08T17:28:56.412Z,32.27
2023-04-08T17:31:24.214Z,31.30
2023-04-08T17:33:52.226Z,29.43
2023-04-08T17:36:20.110Z,31.53
2023-04-08T17:38:49.380Z,27.87
2023-04-08T17:41:29.727Z,29.17
2023-04-08T17:44:05.884Z,30.07
2023-04-08T17:46:33.701Z,31.00
2023-04-08T17:49:01.848Z,31.80
2023-04-08T17:51:30.916Z,34.33
2023-04-08T17:54:00.325Z,31.93
2023-04-08T17:56:28.268Z,34.13
2023-04-08T17:58:56.216Z,28.00
2023-04-08T18:01:24.092Z,27.23
2023-04-08T18:03:52.245Z,28.00
2023-04-08T18:06:20.187Z,31.37
2023-04-08T18:08:48.445Z,33.57
2023-04-08T18:11:17.529Z,33.57
2023-04-08T18:13:46.009Z,33.07
2023-04-08T18:16:17.424Z,39.77
2023-04-08T18:18:45.949Z,37.83
2023-04-08T18:21:15.029Z,31.73
2023-04-08T18:23:42.876Z,32.20
2023-04-08T18:26:10.951Z,30.40
2023-04-08T18:28:40.152Z,31.47
2023-04-08T18:31:08.082Z,28.53
2023-04-08T18:33:36.298Z,30.37
2023-04-08T18:36:08.900Z,31.97
2023-04-08T18:38:36.799Z,32.73
2023-04-08T18:41:04.617Z,33.43
2023-04-08T18:43:33.204Z,32.30
2023-04-08T18:46:02.439Z,31.70
2023-04-08T18:48:30.474Z,33.47
2023-04-08T18:50:58.650Z,32.77
2023-04-08T18:53:26.422Z,30.80
2023-04-08T18:55:54.363Z,33.27
2023-04-08T18:58:22.649Z,34.80
2023-04-08T19:00:50.876Z,35.57
2023-04-08T19:03:20.180Z,35.73
2023-04-08T19:05:47.929Z,38.23
2023-04-08T19:08:15.846Z,35.77
2023-04-08T19:10:43.819Z,37.67
2023-04-08T19:13:11.657Z,38.70
2023-04-08T19:15:39.386Z,35.70
2023-04-08T19:18:07.416Z,39.40
2023-04-08T19:20:36.580Z,35.73
2023-04-08T19:23:04.368Z,35.47
2023-04-08T19:25:32.642Z,35.80
2023-04-08T19:28:00.397Z,37.47
2023-04-08T19:30:28.213Z,37.20
2023-04-08T19:32:56.154Z,36.47
2023-04-08T19:35:24.197Z,35.37
2023-04-08T19:37:53.300Z,37.23
2023-04-08T19:40:21.180Z,37.73
2023-04-08T19:42:48.906Z,35.13
2023-04-08T19:45:17.465Z,34.77
2023-04-08T19:47:45.447Z,33.27
2023-04-08T19:50:13.799Z,32.57
2023-04-08T19:52:41.712Z,30.00
2023-04-08T19:55:11.157Z,32.57
2023-04-08T19:57:39.183Z,29.50
2023-04-08T20:00:09.268Z,30.97
2023-04-08T20:02:38.390Z,29.47
2023-04-08T20:05:07.761Z,29.70
2023-04-08T20:07:35.619Z,29.13
2023-04-08T20:10:03.395Z,27.30
2023-04-08T20:12:32.719Z,28.87
2023-04-08T20:15:01.099Z,29.33
2023-04-08T20:17:29.073Z,29.67
2023-04-08T20:19:56.908Z,29.40
2023-04-08T20:22:25.600Z,31.37
2023-04-08T20:24:53.317Z,30.87
2023-04-08T20:27:21.302Z,27.97
2023-04-08T20:29:50.414Z,27.27
2023-04-08T20:32:18.673Z,30.63
2023-04-08T20:34:46.565Z,29.57
2023-04-08T20:37:14.439Z,30.30
2023-04-08T20:39:42.136Z,29.07
2023-04-08T20:42:10.106Z,28.53
2023-04-08T20:44:37.874Z,28.47
2023-04-08T20:47:06.984Z,26.63
2023-04-08T20:49:35.317Z,27.17
2023-04-08T20:52:03.093Z,27.87
2023-04-08T20:54:31.642Z,27.17
2023-04-08T20:57:00.161Z,28.40
2023-04-08T20:59:28.140Z,31.27
2023-04-08T21:01:56.029Z,28.00
2023-04-08T21:04:25.347Z,28.37
2023-04-08T21:06:53.463Z,30.67
2023-04-08T21:09:21.250Z,29.63
2023-04-08T21:11:49.044Z,31.03
2023-04-08T21:14:16.839Z,30.43
2023-04-08T21:16:44.953Z,30.00
2023-04-08T21:19:12.800Z,31.07
2023-04-08T21:21:41.964Z,32.80
2023-04-08T21:24:10.527Z,35.57
2023-04-08T21:26:38.256Z,34.80
2023-04-08T21:29:06.268Z,35.13
2023-04-08T21:31:34.696Z,33.17
2023-04-08T21:34:02.547Z,36.23
2023-04-08T21:36:31.371Z,36.87
2023-04-08T21:39:00.569Z,34.23
2023-04-08T21:41:30.288Z,33.50
2023-04-08T21:44:00.778Z,32.90
2023-04-08T21:46:28.558Z,33.73
2023-04-08T21:48:56.370Z,31.33
2023-04-08T21:51:24.309Z,32.53
2023-04-08T21:53:52.392Z,34.90
2023-04-08T21:56:22.062Z,30.73
2023-04-08T21:58:50.159Z,28.73
2023-04-08T22:01:18.275Z,33.37
2023-04-08T22:03:46.237Z,33.53
2023-04-08T22:06:25.587Z,32.47
2023-04-08T22:08:59.385Z,30.58
2023-04-08T22:11:28.584Z,33.37
2023-04-08T22:13:56.293Z,29.20
2023-04-08T22:16:24.407Z,29.67
2023-04-08T22:18:52.340Z,31.17
2023-04-08T22:21:20.935Z,30.77
2023-04-08T22:23:49.956Z,35.10
2023-04-08T22:26:17.799Z,32.33
2023-04-08T22:28:46.945Z,31.43
2023-04-08T22:31:14.861Z,32.10
2023-04-08T22:33:42.669Z,31.90
2023-04-08T22:36:10.616Z,31.70
2023-04-08T22:38:38.525Z,29.57
2023-04-08T22:41:06.366Z,30.07
2023-04-08T22:43:34.067Z,32.80
2023-04-08T22:46:03.220Z,32.50
2023-04-08T22:48:31.204Z,34.40
2023-04-08T22:50:58.994Z,31.40
2023-04-08T22:53:27.541Z,32.30
2023-04-08T22:55:55.299Z,31.07
2023-04-08T22:58:23.154Z,31.47
2023-04-08T23:00:50.954Z,32.63
2023-04-08T23:03:20.318Z,32.37
2023-04-08T23:05:48.416Z,35.97
2023-04-08T23:08:16.410Z,32.73
2023-04-08T23:10:44.203Z,32.03
2023-04-08T23:13:13.926Z,31.87
2023-04-08T23:15:41.913Z,33.67
2023-04-08T23:18:09.791Z,34.73
2023-04-08T23:20:38.926Z,35.00
2023-04-08T23:23:06.928Z,32.10
2023-04-08T23:25:36.324Z,32.40
2023-04-08T23:28:04.688Z,32.03
2023-04-08T23:30:32.426Z,34.47
2023-04-08T23:33:00.202Z,33.37
2023-04-08T23:35:27.986Z,31.70
2023-04-08T23:37:57.155Z,32.23
2023-04-08T23:40:25.231Z,32.73
2023-04-08T23:42:53.189Z,33.30
2023-04-08T23:45:20.918Z,34.53
2023-04-08T23:47:48.906Z,35.77
2023-04-08T23:50:17.036Z,36.50
2023-04-08T23:52:44.897Z,33.37
2023-04-08T23:55:14.166Z,37.10
2023-04-08T23:57:43.612Z,37.17
